sensor_id;sensor_type;location;lat;lon;timestamp;P1;durP1;ratioP1;P2;durP2;ratioP2
13240;SDS011;6687;47.790;7.322;2023-05-23T04:58:34;2.10;;;1.77;;
13240;SDS011;6687;47.790;7.322;2023-05-23T05:01:01;1.70;;;1.50;;
13240;SDS011;6687;47.790;7.322;2023-05-23T05:03:28;1.48;;;1.35;;
13240;SDS011;6687;47.790;7.322;2023-05-23T05:05:55;2.35;;;1.50;;
13240;SDS011;6687;47.790;7.322;2023-05-23T05:08:22;1.73;;;1.30;;
13240;SDS011;6687;47.790;7.322;2023-05-23T05:10:49;2.30;;;1.50;;
13240;SDS011;6687;47.790;7.322;2023-05-23T05:13:15;1.35;;;1.25;;
13240;SDS011;6687;47.790;7.322;2023-05-23T05:15:43;1.70;;;1.52;;
13240;SDS011;6687;47.790;7.322;2023-05-23T05:18:10;2.03;;;1.50;;
13240;SDS011;6687;47.790;7.322;2023-05-23T05:20:37;1.77;;;1.33;;
13240;SDS011;6687;47.790;7.322;2023-05-23T05:23:04;2.05;;;1.30;;
13240;SDS011;6687;47.790;7.322;2023-05-23T05:25:32;1.70;;;1.60;;
13240;SDS011;6687;47.790;7.322;2023-05-23T05:28:00;2.13;;;1.60;;
13240;SDS011;6687;47.790;7.322;2023-05-23T05:30:30;1.83;;;1.73;;
13240;SDS011;6687;47.790;7.322;2023-05-23T05:32:59;2.05;;;1.70;;
13240;SDS011;6687;47.790;7.322;2023-05-23T05:35:26;1.83;;;1.65;;
13240;SDS011;6687;47.790;7.322;2023-05-23T05:37:53;1.58;;;1.48;;
13240;SDS011;6687;47.790;7.322;2023-05-23T05:40:20;2.17;;;1.45;;
13240;SDS011;6687;47.790;7.322;2023-05-23T05:42:47;2.25;;;1.80;;
13240;SDS011;6687;47.790;7.322;2023-05-23T05:45:13;2.67;;;1.85;;
13240;SDS011;6687;47.790;7.322;2023-05-23T05:47:40;2.38;;;1.77;;
13240;SDS011;6687;47.790;7.322;2023-05-23T05:50:08;2.90;;;1.70;;
13240;SDS011;6687;47.790;7.322;2023-05-23T05:52:36;2.42;;;1.75;;
13240;SDS011;6687;47.790;7.322;2023-05-23T05:55:04;2.38;;;1.77;;
13240;SDS011;6687;47.790;7.322;2023-05-23T05:57:31;2.60;;;1.75;;
13240;SDS011;6687;47.790;7.322;2023-05-23T05:59:58;2.33;;;1.70;;
13240;SDS011;6687;47.790;7.322;2023-05-23T06:02:25;2.90;;;1.83;;
13240;SDS011;6687;47.790;7.322;2023-05-23T06:04:52;3.70;;;2.42;;
13240;SDS011;6687;47.790;7.322;2023-05-23T06:07:20;2.53;;;1.95;;
13240;SDS011;6687;47.790;7.322;2023-05-23T06:09:46;4.32;;;2.15;;
13240;SDS011;6687;47.790;7.322;2023-05-23T06:12:13;1.83;;;1.73;;
13240;SDS011;6687;47.790;7.322;2023-05-23T06:14:40;2.38;;;2.08;;
13240;SDS011;6687;47.790;7.322;2023-05-23T06:17:06;3.30;;;2.22;;
13240;SDS011;6687;47.790;7.322;2023-05-23T06:19:33;2.97;;;2.15;;
13240;SDS011;6687;47.790;7.322;2023-05-23T06:22:01;3.20;;;2.47;;
13240;SDS011;6687;47.790;7.322;2023-05-23T06:24:29;2.63;;;2.40;;
13240;SDS011;6687;47.790;7.322;2023-05-23T06:26:56;4.22;;;2.55;;
13240;SDS011;6687;47.790;7.322;2023-05-23T06:29:23;4.15;;;2.90;;
13240;SDS011;6687;47.790;7.322;2023-05-23T06:31:50;6.25;;;3.17;;
13240;SDS011;6687;47.790;7.322;2023-05-23T06:34:17;4.57;;;2.78;;
13240;SDS011;6687;47.790;7.322;2023-05-23T06:36:43;5.28;;;3.30;;
13240;SDS011;6687;47.790;7.322;2023-05-23T06:39:11;5.85;;;3.92;;
13240;SDS011;6687;47.790;7.322;2023-05-23T06:41:39;5.75;;;3.25;;
13240;SDS011;6687;47.790;7.322;2023-05-23T06:44:06;5.65;;;2.95;;
13240;SDS011;6687;47.790;7.322;2023-05-23T06:46:32;4.68;;;2.92;;
13240;SDS011;6687;47.790;7.322;2023-05-23T06:48:59;4.85;;;3.22;;
13240;SDS011;6687;47.790;7.322;2023-05-23T06:51:26;7.68;;;3.58;;
13240;SDS011;6687;47.790;7.322;2023-05-23T06:53:53;6.72;;;3.40;;
13240;SDS011;6687;47.790;7.322;2023-05-23T06:56:20;6.03;;;3.53;;
13240;SDS011;6687;47.790;7.322;2023-05-23T06:58:49;9.05;;;4.00;;
13240;SDS011;6687;47.790;7.322;2023-05-23T07:01:15;7.65;;;3.92;;
13240;SDS011;6687;47.790;7.322;2023-05-23T07:03:42;7.10;;;3.95;;
13240;SDS011;6687;47.790;7.322;2023-05-23T07:06:09;7.00;;;3.92;;
13240;SDS011;6687;47.790;7.322;2023-05-23T07:08:37;8.45;;;3.97;;
13240;SDS011;6687;47.790;7.322;2023-05-23T07:11:04;9.35;;;4.57;;
13240;SDS011;6687;47.790;7.322;2023-05-23T07:13:31;6.70;;;3.97;;
13240;SDS011;6687;47.790;7.322;2023-05-23T07:15:59;6.30;;;4.10;;
13240;SDS011;6687;47.790;7.322;2023-05-23T07:18:26;5.45;;;3.60;;
13240;SDS011;6687;47.790;7.322;2023-05-23T07:20:53;10.50;;;4.35;;
13240;SDS011;6687;47.790;7.322;2023-05-23T07:23:21;8.73;;;3.97;;
13240;SDS011;6687;47.790;7.322;2023-05-23T07:25:48;9.23;;;4.38;;
13240;SDS011;6687;47.790;7.322;2023-05-23T07:28:15;9.23;;;4.78;;
13240;SDS011;6687;47.790;7.322;2023-05-23T07:30:42;6.60;;;3.67;;
13240;SDS011;6687;47.790;7.322;2023-05-23T07:33:10;8.88;;;4.70;;
13240;SDS011;6687;47.790;7.322;2023-05-23T07:35:36;8.05;;;4.15;;
13240;SDS011;6687;47.790;7.322;2023-05-23T07:38:03;6.93;;;4.05;;
13240;SDS011;6687;47.790;7.322;2023-05-23T07:40:30;10.77;;;5.03;;
13240;SDS011;6687;47.790;7.322;2023-05-23T07:42:57;8.05;;;4.63;;
13240;SDS011;6687;47.790;7.322;2023-05-23T07:45:24;10.52;;;4.50;;
13240;SDS011;6687;47.790;7.322;2023-05-23T07:47:50;7.25;;;4.13;;
13240;SDS011;6687;47.790;7.322;2023-05-23T07:50:19;5.57;;;3.53;;
13240;SDS011;6687;47.790;7.322;2023-05-23T07:52:46;9.73;;;4.35;;
13240;SDS011;6687;47.790;7.322;2023-05-23T07:55:12;6.93;;;4.15;;
13240;SDS011;6687;47.790;7.322;2023-05-23T07:57:39;8.13;;;5.03;;
13240;SDS011;6687;47.790;7.322;2023-05-23T08:00:06;8.15;;;4.95;;
13240;SDS011;6687;47.790;7.322;2023-05-23T08:02:34;10.82;;;4.47;;
13240;SDS011;6687;47.790;7.322;2023-05-23T08:05:01;10.88;;;4.60;;
13240;SDS011;6687;47.790;7.322;2023-05-23T08:07:29;8.10;;;4.88;;
13240;SDS011;6687;47.790;7.322;2023-05-23T08:09:56;9.25;;;5.05;;
13240;SDS011;6687;47.790;7.322;2023-05-23T08:12:22;10.70;;;4.85;;
13240;SDS011;6687;47.790;7.322;2023-05-23T08:14:49;11.52;;;5.00;;
13240;SDS011;6687;47.790;7.322;2023-05-23T08:17:16;12.93;;;5.45;;
13240;SDS011;6687;47.790;7.322;2023-05-23T08:19:43;8.68;;;4.85;;
13240;SDS011;6687;47.790;7.322;2023-05-23T08:22:10;8.02;;;5.30;;
13240;SDS011;6687;47.790;7.322;2023-05-23T08:24:38;10.90;;;4.88;;
13240;SDS011;6687;47.790;7.322;2023-05-23T08:27:05;12.60;;;5.85;;
13240;SDS011;6687;47.790;7.322;2023-05-23T08:29:32;11.45;;;5.07;;
13240;SDS011;6687;47.790;7.322;2023-05-23T08:31:59;8.48;;;4.20;;
13240;SDS011;6687;47.790;7.322;2023-05-23T08:34:26;9.45;;;5.65;;
13240;SDS011;6687;47.790;7.322;2023-05-23T08:36:52;15.55;;;4.85;;
13240;SDS011;6687;47.790;7.322;2023-05-23T08:39:19;10.60;;;5.53;;
13240;SDS011;6687;47.790;7.322;2023-05-23T08:41:47;10.05;;;5.20;;
13240;SDS011;6687;47.790;7.322;2023-05-23T08:44:14;9.75;;;4.53;;
13240;SDS011;6687;47.790;7.322;2023-05-23T08:46:43;10.13;;;5.97;;
13240;SDS011;6687;47.790;7.322;2023-05-23T08:49:13;11.05;;;4.57;;
13240;SDS011;6687;47.790;7.322;2023-05-23T08:51:42;11.95;;;7.50;;
13240;SDS011;6687;47.790;7.322;2023-05-23T08:54:09;8.88;;;4.90;;
13240;SDS011;6687;47.790;7.322;2023-05-23T08:56:37;8.90;;;4.45;;
13240;SDS011;6687;47.790;7.322;2023-05-23T08:59:07;7.35;;;4.47;;
13240;SDS011;6687;47.790;7.322;2023-05-23T09:01:35;10.13;;;4.55;;
13240;SDS011;6687;47.790;7.322;2023-05-23T09:04:04;9.48;;;5.85;;
13240;SDS011;6687;47.790;7.322;2023-05-23T09:06:31;8.70;;;4.68;;
13240;SDS011;6687;47.790;7.322;2023-05-23T09:08:58;8.95;;;4.72;;
13240;SDS011;6687;47.790;7.322;2023-05-23T09:11:24;8.98;;;4.18;;
13240;SDS011;6687;47.790;7.322;2023-05-23T09:13:51;9.05;;;4.32;;
13240;SDS011;6687;47.790;7.322;2023-05-23T09:16:20;9.98;;;5.40;;
13240;SDS011;6687;47.790;7.322;2023-05-23T09:18:46;8.73;;;4.00;;
13240;SDS011;6687;47.790;7.322;2023-05-23T09:21:13;5.57;;;3.50;;
13240;SDS011;6687;47.790;7.322;2023-05-23T09:23:40;7.28;;;4.00;;
13240;SDS011;6687;47.790;7.322;2023-05-23T09:26:07;7.88;;;4.25;;
13240;SDS011;6687;47.790;7.322;2023-05-23T09:28:36;8.38;;;4.32;;
13240;SDS011;6687;47.790;7.322;2023-05-23T09:31:04;11.85;;;6.18;;
13240;SDS011;6687;47.790;7.322;2023-05-23T09:33:37;8.13;;;4.75;;
13240;SDS011;6687;47.790;7.322;2023-05-23T09:36:05;10.18;;;4.40;;
13240;SDS011;6687;47.790;7.322;2023-05-23T09:38:33;7.25;;;3.78;;
13240;SDS011;6687;47.790;7.322;2023-05-23T09:41:03;6.82;;;4.57;;
13240;SDS011;6687;47.790;7.322;2023-05-23T09:43:30;10.13;;;4.38;;
13240;SDS011;6687;47.790;7.322;2023-05-23T09:45:59;7.72;;;4.70;;
13240;SDS011;6687;47.790;7.322;2023-05-23T09:48:27;8.50;;;4.18;;
13240;SDS011;6687;47.790;7.322;2023-05-23T09:50:56;6.15;;;4.00;;
13240;SDS011;6687;47.790;7.322;2023-05-23T09:53:23;7.60;;;3.78;;
13240;SDS011;6687;47.790;7.322;2023-05-23T09:55:50;7.00;;;3.67;;
13240;SDS011;6687;47.790;7.322;2023-05-23T09:58:18;8.82;;;3.55;;
13240;SDS011;6687;47.790;7.322;2023-05-23T10:00:48;6.03;;;3.50;;
13240;SDS011;6687;47.790;7.322;2023-05-23T10:03:17;8.07;;;4.18;;
13240;SDS011;6687;47.790;7.322;2023-05-23T10:05:50;5.95;;;3.72;;
13240;SDS011;6687;47.790;7.322;2023-05-23T10:08:25;8.38;;;4.13;;
13240;SDS011;6687;47.790;7.322;2023-05-23T10:14:16;5.93;;;3.50;;
13240;SDS011;6687;47.790;7.322;2023-05-23T10:16:46;8.32;;;4.10;;
13240;SDS011;6687;47.790;7.322;2023-05-23T10:19:22;6.20;;;3.72;;
13240;SDS011;6687;47.790;7.322;2023-05-23T10:21:52;7.40;;;3.90;;
13240;SDS011;6687;47.790;7.322;2023-05-23T10:24:25;4.80;;;3.50;;
13240;SDS011;6687;47.790;7.322;2023-05-23T10:26:53;9.02;;;3.75;;
13240;SDS011;6687;47.790;7.322;2023-05-23T10:29:20;5.88;;;3.67;;
13240;SDS011;6687;47.790;7.322;2023-05-23T10:31:48;8.05;;;4.38;;
13240;SDS011;6687;47.790;7.322;2023-05-23T10:34:18;4.63;;;3.28;;
13240;SDS011;6687;47.790;7.322;2023-05-23T10:36:54;7.72;;;3.88;;
13240;SDS011;6687;47.790;7.322;2023-05-23T10:42:22;5.95;;;3.25;;
13240;SDS011;6687;47.790;7.322;2023-05-23T10:45:14;6.32;;;3.67;;
13240;SDS011;6687;47.790;7.322;2023-05-23T10:47:45;7.93;;;3.47;;
13240;SDS011;6687;47.790;7.322;2023-05-23T10:50:12;5.70;;;3.25;;
13240;SDS011;6687;47.790;7.322;2023-05-23T10:52:40;5.85;;;3.60;;
13240;SDS011;6687;47.790;7.322;2023-05-23T10:55:12;4.25;;;3.33;;
13240;SDS011;6687;47.790;7.322;2023-05-23T10:57:42;5.90;;;3.38;;
13240;SDS011;6687;47.790;7.322;2023-05-23T11:00:13;7.45;;;3.75;;
13240;SDS011;6687;47.790;7.322;2023-05-23T11:02:45;6.35;;;3.58;;
13240;SDS011;6687;47.790;7.322;2023-05-23T11:05:18;5.65;;;3.47;;
13240;SDS011;6687;47.790;7.322;2023-05-23T11:07:46;5.80;;;3.22;;
13240;SDS011;6687;47.790;7.322;2023-05-23T11:10:34;5.78;;;3.40;;
13240;SDS011;6687;47.790;7.322;2023-05-23T11:13:17;6.00;;;3.53;;
13240;SDS011;6687;47.790;7.322;2023-05-23T11:15:46;6.07;;;3.40;;
13240;SDS011;6687;47.790;7.322;2023-05-23T11:18:18;4.93;;;3.53;;
13240;SDS011;6687;47.790;7.322;2023-05-23T11:20:48;5.32;;;3.08;;
13240;SDS011;6687;47.790;7.322;2023-05-23T11:23:17;4.57;;;3.30;;
13240;SDS011;6687;47.790;7.322;2023-05-23T11:25:46;4.65;;;3.20;;
13240;SDS011;6687;47.790;7.322;2023-05-23T11:28:15;5.20;;;3.42;;
13240;SDS011;6687;47.790;7.322;2023-05-23T11:30:42;6.63;;;3.78;;
13240;SDS011;6687;47.790;7.322;2023-05-23T11:33:12;6.10;;;3.40;;
13240;SDS011;6687;47.790;7.322;2023-05-23T11:35:40;7.25;;;3.70;;
13240;SDS011;6687;47.790;7.322;2023-05-23T11:38:08;5.18;;;3.08;;
13240;SDS011;6687;47.790;7.322;2023-05-23T11:40:35;8.50;;;3.58;;
13240;SDS011;6687;47.790;7.322;2023-05-23T11:43:05;6.43;;;3.35;;
13240;SDS011;6687;47.790;7.322;2023-05-23T11:45:33;5.35;;;3.33;;
13240;SDS011;6687;47.790;7.322;2023-05-23T11:48:04;7.43;;;3.33;;
13240;SDS011;6687;47.790;7.322;2023-05-23T11:50:32;4.97;;;3.20;;
13240;SDS011;6687;47.790;7.322;2023-05-23T11:52:59;4.00;;;2.88;;
13240;SDS011;6687;47.790;7.322;2023-05-23T11:55:26;4.53;;;3.00;;
13240;SDS011;6687;47.790;7.322;2023-05-23T11:57:54;3.65;;;2.60;;
13240;SDS011;6687;47.790;7.322;2023-05-23T12:00:23;6.10;;;3.40;;
13240;SDS011;6687;47.790;7.322;2023-05-23T12:02:49;5.85;;;3.17;;
13240;SDS011;6687;47.790;7.322;2023-05-23T12:05:16;5.32;;;2.60;;
13240;SDS011;6687;47.790;7.322;2023-05-23T12:07:43;3.10;;;2.55;;
13240;SDS011;6687;47.790;7.322;2023-05-23T12:10:11;4.60;;;2.50;;
13240;SDS011;6687;47.790;7.322;2023-05-23T12:12:39;4.78;;;2.83;;
13240;SDS011;6687;47.790;7.322;2023-05-23T12:15:07;4.70;;;2.78;;
13240;SDS011;6687;47.790;7.322;2023-05-23T12:17:36;4.80;;;3.13;;
13240;SDS011;6687;47.790;7.322;2023-05-23T12:20:04;4.13;;;2.92;;
13240;SDS011;6687;47.790;7.322;2023-05-23T12:22:31;3.75;;;2.60;;
13240;SDS011;6687;47.790;7.322;2023-05-23T12:24:58;5.80;;;3.10;;
13240;SDS011;6687;47.790;7.322;2023-05-23T12:27:25;4.38;;;3.45;;
13240;SDS011;6687;47.790;7.322;2023-05-23T12:30:03;4.15;;;3.00;;
13240;SDS011;6687;47.790;7.322;2023-05-23T12:32:31;4.18;;;2.50;;
13240;SDS011;6687;47.790;7.322;2023-05-23T12:34:59;3.70;;;2.72;;
13240;SDS011;6687;47.790;7.322;2023-05-23T12:37:26;6.22;;;3.10;;
13240;SDS011;6687;47.790;7.322;2023-05-23T12:39:54;5.07;;;3.33;;
13240;SDS011;6687;47.790;7.322;2023-05-23T12:42:20;3.25;;;2.65;;
13240;SDS011;6687;47.790;7.322;2023-05-23T12:44:49;3.60;;;2.70;;
13240;SDS011;6687;47.790;7.322;2023-05-23T12:47:16;4.70;;;2.80;;
13240;SDS011;6687;47.790;7.322;2023-05-23T12:49:43;4.55;;;2.65;;
13240;SDS011;6687;47.790;7.322;2023-05-23T12:52:12;3.72;;;2.75;;
13240;SDS011;6687;47.790;7.322;2023-05-23T12:54:39;3.58;;;2.45;;
13240;SDS011;6687;47.790;7.322;2023-05-23T12:57:05;3.53;;;2.38;;
13240;SDS011;6687;47.790;7.322;2023-05-23T12:59:32;5.32;;;2.90;;
13240;SDS011;6687;47.790;7.322;2023-05-23T13:01:59;3.78;;;2.85;;
13240;SDS011;6687;47.790;7.322;2023-05-23T13:04:26;4.38;;;2.55;;
13240;SDS011;6687;47.790;7.322;2023-05-23T13:06:53;5.18;;;2.60;;
13240;SDS011;6687;47.790;7.322;2023-05-23T13:09:21;4.75;;;2.60;;
13240;SDS011;6687;47.790;7.322;2023-05-23T13:11:48;7.60;;;2.53;;
13240;SDS011;6687;47.790;7.322;2023-05-23T13:14:14;4.60;;;2.72;;
13240;SDS011;6687;47.790;7.322;2023-05-23T13:16:41;3.72;;;2.67;;
13240;SDS011;6687;47.790;7.322;2023-05-23T13:19:09;3.83;;;2.72;;
13240;SDS011;6687;47.790;7.322;2023-05-23T13:21:35;4.63;;;3.03;;
13240;SDS011;6687;47.790;7.322;2023-05-23T13:24:02;4.28;;;2.45;;
13240;SDS011;6687;47.790;7.322;2023-05-23T13:26:30;3.25;;;2.42;;
13240;SDS011;6687;47.790;7.322;2023-05-23T13:28:57;3.03;;;2.30;;
13240;SDS011;6687;47.790;7.322;2023-05-23T13:31:24;4.80;;;2.53;;
13240;SDS011;6687;47.790;7.322;2023-05-23T13:33:51;3.10;;;2.17;;
13240;SDS011;6687;47.790;7.322;2023-05-23T13:36:17;2.97;;;2.33;;
13240;SDS011;6687;47.790;7.322;2023-05-23T13:38:44;3.67;;;2.47;;
13240;SDS011;6687;47.790;7.322;2023-05-23T13:41:11;4.43;;;2.60;;
13240;SDS011;6687;47.790;7.322;2023-05-23T13:43:39;4.47;;;2.33;;
13240;SDS011;6687;47.790;7.322;2023-05-23T13:46:06;3.05;;;2.28;;
13240;SDS011;6687;47.790;7.322;2023-05-23T13:48:32;2.72;;;2.35;;
13240;SDS011;6687;47.790;7.322;2023-05-23T13:50:59;2.83;;;2.05;;
13240;SDS011;6687;47.790;7.322;2023-05-23T13:53:26;2.53;;;2.28;;
13240;SDS011;6687;47.790;7.322;2023-05-23T13:55:53;3.47;;;2.47;;
13240;SDS011;6687;47.790;7.322;2023-05-23T13:58:20;2.72;;;2.13;;
13240;SDS011;6687;47.790;7.322;2023-05-23T14:00:48;2.45;;;2.25;;
13240;SDS011;6687;47.790;7.322;2023-05-23T14:03:14;3.00;;;2.47;;
13240;SDS011;6687;47.790;7.322;2023-05-23T14:05:43;2.38;;;2.17;;
13240;SDS011;6687;47.790;7.322;2023-05-23T14:08:10;3.22;;;2.15;;
13240;SDS011;6687;47.790;7.322;2023-05-23T14:10:38;2.47;;;2.28;;
13240;SDS011;6687;47.790;7.322;2023-05-23T14:13:05;4.03;;;2.55;;
13240;SDS011;6687;47.790;7.322;2023-05-23T14:15:32;3.33;;;2.80;;
13240;SDS011;6687;47.790;7.322;2023-05-23T14:18:00;3.25;;;2.40;;
13240;SDS011;6687;47.790;7.322;2023-05-23T14:20:26;2.60;;;2.22;;
13240;SDS011;6687;47.790;7.322;2023-05-23T14:22:54;3.50;;;2.22;;
13240;SDS011;6687;47.790;7.322;2023-05-23T14:25:20;3.83;;;2.22;;
13240;SDS011;6687;47.790;7.322;2023-05-23T14:27:47;3.22;;;2.50;;
13240;SDS011;6687;47.790;7.322;2023-05-23T14:30:14;2.70;;;2.28;;
13240;SDS011;6687;47.790;7.322;2023-05-23T14:32:40;4.00;;;2.10;;
13240;SDS011;6687;47.790;7.322;2023-05-23T14:35:09;3.90;;;2.60;;
13240;SDS011;6687;47.790;7.322;2023-05-23T14:37:36;2.25;;;2.08;;
13240;SDS011;6687;47.790;7.322;2023-05-23T14:40:03;3.33;;;2.22;;
13240;SDS011;6687;47.790;7.322;2023-05-23T14:42:31;2.85;;;2.20;;
13240;SDS011;6687;47.790;7.322;2023-05-23T14:44:58;3.78;;;2.28;;
13240;SDS011;6687;47.790;7.322;2023-05-23T14:47:24;2.40;;;2.10;;
13240;SDS011;6687;47.790;7.322;2023-05-23T14:49:51;3.28;;;2.05;;
13240;SDS011;6687;47.790;7.322;2023-05-23T14:52:19;3.63;;;1.95;;
13240;SDS011;6687;47.790;7.322;2023-05-23T14:54:46;1.95;;;1.70;;
13240;SDS011;6687;47.790;7.322;2023-05-23T14:57:13;2.30;;;1.88;;
13240;SDS011;6687;47.790;7.322;2023-05-23T14:59:39;2.97;;;1.70;;
13240;SDS011;6687;47.790;7.322;2023-05-23T15:02:06;3.97;;;2.45;;
13240;SDS011;6687;47.790;7.322;2023-05-23T15:04:33;2.13;;;1.92;;
13240;SDS011;6687;47.790;7.322;2023-05-23T15:07:01;3.50;;;2.10;;
13240;SDS011;6687;47.790;7.322;2023-05-23T15:09:29;2.58;;;1.70;;
13240;SDS011;6687;47.790;7.322;2023-05-23T15:11:56;2.10;;;1.65;;
13240;SDS011;6687;47.790;7.322;2023-05-23T15:14:23;2.05;;;1.90;;
13240;SDS011;6687;47.790;7.322;2023-05-23T15:16:53;2.08;;;1.75;;
13240;SDS011;6687;47.790;7.322;2023-05-23T15:19:20;2.42;;;1.73;;
13240;SDS011;6687;47.790;7.322;2023-05-23T15:21:47;1.90;;;1.80;;
13240;SDS011;6687;47.790;7.322;2023-05-23T15:24:14;1.65;;;1.55;;
13240;SDS011;6687;47.790;7.322;2023-05-23T15:26:42;1.60;;;1.42;;
13240;SDS011;6687;47.790;7.322;2023-05-23T15:29:08;1.75;;;1.48;;
13240;SDS011;6687;47.790;7.322;2023-05-23T15:31:36;1.80;;;1.70;;
13240;SDS011;6687;47.790;7.322;2023-05-23T15:34:03;2.00;;;1.52;;
13240;SDS011;6687;47.790;7.322;2023-05-23T15:36:29;1.50;;;1.40;;
13240;SDS011;6687;47.790;7.322;2023-05-23T15:38:56;1.52;;;1.42;;
13240;SDS011;6687;47.790;7.322;2023-05-23T15:41:23;1.40;;;1.25;;
13240;SDS011;6687;47.790;7.322;2023-05-23T15:43:52;2.15;;;1.52;;
13240;SDS011;6687;47.790;7.322;2023-05-23T15:46:18;1.65;;;1.50;;
13240;SDS011;6687;47.790;7.322;2023-05-23T15:48:45;1.40;;;1.30;;
13240;SDS011;6687;47.790;7.322;2023-05-23T15:51:12;1.52;;;1.35;;
13240;SDS011;6687;47.790;7.322;2023-05-23T15:53:39;1.90;;;1.40;;
13240;SDS011;6687;47.790;7.322;2023-05-23T15:56:06;1.58;;;1.45;;
13240;SDS011;6687;47.790;7.322;2023-05-23T15:58:33;1.48;;;1.33;;
13240;SDS011;6687;47.790;7.322;2023-05-23T16:01:01;2.38;;;2.17;;
13240;SDS011;6687;47.790;7.322;2023-05-23T16:03:28;1.50;;;1.15;;
13240;SDS011;6687;47.790;7.322;2023-05-23T16:05:55;1.48;;;1.10;;
13240;SDS011;6687;47.790;7.322;2023-05-23T16:08:21;1.73;;;1.27;;
13240;SDS011;6687;47.790;7.322;2023-05-23T16:10:48;1.20;;;1.10;;
13240;SDS011;6687;47.790;7.322;2023-05-23T16:13:15;1.25;;;1.15;;
13240;SDS011;6687;47.790;7.322;2023-05-23T16:15:41;0.90;;;0.90;;
13240;SDS011;6687;47.790;7.322;2023-05-23T16:18:09;1.63;;;1.23;;
13240;SDS011;6687;47.790;7.322;2023-05-23T16:20:36;1.58;;;1.48;;
13240;SDS011;6687;47.790;7.322;2023-05-23T16:23:03;1.33;;;1.23;;
13240;SDS011;6687;47.790;7.322;2023-05-23T16:25:29;1.25;;;1.15;;
13240;SDS011;6687;47.790;7.322;2023-05-23T16:27:56;1.20;;;1.08;;
13240;SDS011;6687;47.790;7.322;2023-05-23T16:30:23;1.00;;;0.80;;
13240;SDS011;6687;47.790;7.322;2023-05-23T16:32:51;1.55;;;1.13;;
13240;SDS011;6687;47.790;7.322;2023-05-23T16:35:20;1.30;;;1.20;;
13240;SDS011;6687;47.790;7.322;2023-05-23T16:37:46;1.08;;;1.00;;
13240;SDS011;6687;47.790;7.322;2023-05-23T16:40:13;1.52;;;1.35;;
13240;SDS011;6687;47.790;7.322;2023-05-23T16:42:40;0.80;;;0.80;;
13240;SDS011;6687;47.790;7.322;2023-05-23T16:45:07;2.33;;;1.20;;
13240;SDS011;6687;47.790;7.322;2023-05-23T16:47:34;0.98;;;0.90;;
13240;SDS011;6687;47.790;7.322;2023-05-23T16:50:00;1.52;;;1.13;;
13240;SDS011;6687;47.790;7.322;2023-05-23T16:52:30;1.42;;;1.33;;
13240;SDS011;6687;47.790;7.322;2023-05-23T16:54:57;1.52;;;1.17;;
13240;SDS011;6687;47.790;7.322;2023-05-23T16:57:23;1.58;;;1.05;;
13240;SDS011;6687;47.790;7.322;2023-05-23T16:59:50;1.05;;;1.00;;
13240;SDS011;6687;47.790;7.322;2023-05-23T17:02:17;1.40;;;1.30;;
13240;SDS011;6687;47.790;7.322;2023-05-23T17:04:44;1.17;;;1.02;;
13240;SDS011;6687;47.790;7.322;2023-05-23T17:07:10;1.10;;;0.88;;
13240;SDS011;6687;47.790;7.322;2023-05-23T17:09:39;1.50;;;1.40;;
13240;SDS011;6687;47.790;7.322;2023-05-23T17:12:06;2.40;;;1.30;;
13240;SDS011;6687;47.790;7.322;2023-05-23T17:14:33;1.10;;;1.00;;
13240;SDS011;6687;47.790;7.322;2023-05-23T17:16:59;1.05;;;1.00;;
13240;SDS011;6687;47.790;7.322;2023-05-23T17:19:27;1.20;;;1.10;;
13240;SDS011;6687;47.790;7.322;2023-05-23T17:21:54;1.20;;;1.10;;
13240;SDS011;6687;47.790;7.322;2023-05-23T17:24:22;1.05;;;0.82;;
13240;SDS011;6687;47.790;7.322;2023-05-23T17:26:51;1.08;;;0.98;;
13240;SDS011;6687;47.790;7.322;2023-05-23T17:29:17;1.40;;;0.88;;
13240;SDS011;6687;47.790;7.322;2023-05-23T17:31:44;1.02;;;1.00;;
13240;SDS011;6687;47.790;7.322;2023-05-23T17:34:11;1.15;;;1.05;;
13240;SDS011;6687;47.790;7.322;2023-05-23T17:36:38;1.83;;;1.02;;
13240;SDS011;6687;47.790;7.322;2023-05-23T17:39:04;1.00;;;0.82;;
13240;SDS011;6687;47.790;7.322;2023-05-23T17:41:31;2.45;;;1.15;;
13240;SDS011;6687;47.790;7.322;2023-05-23T17:43:59;1.25;;;1.13;;
13240;SDS011;6687;47.790;7.322;2023-05-23T17:46:27;0.68;;;0.68;;
13240;SDS011;6687;47.790;7.322;2023-05-23T17:48:54;1.92;;;0.98;;
13240;SDS011;6687;47.790;7.322;2023-05-23T17:51:21;1.38;;;1.05;;
13240;SDS011;6687;47.790;7.322;2023-05-23T17:53:48;1.20;;;0.80;;
13240;SDS011;6687;47.790;7.322;2023-05-23T17:56:17;0.80;;;0.80;;
13240;SDS011;6687;47.790;7.322;2023-05-23T17:58:44;1.23;;;0.80;;
13240;SDS011;6687;47.790;7.322;2023-05-23T18:01:12;1.27;;;0.95;;
13240;SDS011;6687;47.790;7.322;2023-05-23T18:03:39;1.25;;;0.88;;
13240;SDS011;6687;47.790;7.322;2023-05-23T18:06:06;1.02;;;0.93;;
13240;SDS011;6687;47.790;7.322;2023-05-23T18:08:32;2.10;;;1.20;;
13240;SDS011;6687;47.790;7.322;2023-05-23T18:10:59;1.45;;;1.10;;
13240;SDS011;6687;47.790;7.322;2023-05-23T18:13:26;0.93;;;0.90;;
13240;SDS011;6687;47.790;7.322;2023-05-23T18:15:53;0.90;;;0.80;;
13240;SDS011;6687;47.790;7.322;2023-05-23T18:18:21;1.35;;;1.15;;
13240;SDS011;6687;47.790;7.322;2023-05-23T18:20:48;1.05;;;0.95;;
13240;SDS011;6687;47.790;7.322;2023-05-23T18:23:14;0.90;;;0.80;;
13240;SDS011;6687;47.790;7.322;2023-05-23T18:25:41;1.30;;;1.20;;
13240;SDS011;6687;47.790;7.322;2023-05-23T18:28:08;1.23;;;0.90;;
13240;SDS011;6687;47.790;7.322;2023-05-23T18:30:35;0.75;;;0.75;;
13240;SDS011;6687;47.790;7.322;2023-05-23T18:33:02;1.25;;;1.13;;
13240;SDS011;6687;47.790;7.322;2023-05-23T18:35:30;1.13;;;0.90;;
13240;SDS011;6687;47.790;7.322;2023-05-23T18:37:56;0.88;;;0.88;;
13240;SDS011;6687;47.790;7.322;2023-05-23T18:40:23;1.15;;;1.05;;
13240;SDS011;6687;47.790;7.322;2023-05-23T18:42:51;1.30;;;1.02;;
13240;SDS011;6687;47.790;7.322;2023-05-23T18:45:17;1.02;;;0.90;;
13240;SDS011;6687;47.790;7.322;2023-05-23T18:47:44;1.00;;;0.90;;
13240;SDS011;6687;47.790;7.322;2023-05-23T18:50:11;1.88;;;1.17;;
13240;SDS011;6687;47.790;7.322;2023-05-23T18:52:40;1.42;;;1.00;;
13240;SDS011;6687;47.790;7.322;2023-05-23T18:55:08;2.15;;;1.08;;
13240;SDS011;6687;47.790;7.322;2023-05-23T18:57:35;1.75;;;1.00;;
13240;SDS011;6687;47.790;7.322;2023-05-23T19:00:02;1.30;;;0.90;;
13240;SDS011;6687;47.790;7.322;2023-05-23T19:02:30;1.35;;;1.20;;
13240;SDS011;6687;47.790;7.322;2023-05-23T19:04:56;1.13;;;1.02;;
13240;SDS011;6687;47.790;7.322;2023-05-23T19:07:23;1.15;;;1.02;;
13240;SDS011;6687;47.790;7.322;2023-05-23T19:09:51;1.52;;;1.10;;
13240;SDS011;6687;47.790;7.322;2023-05-23T19:12:18;1.92;;;1.17;;
13240;SDS011;6687;47.790;7.322;2023-05-23T19:14:45;1.20;;;1.10;;
13240;SDS011;6687;47.790;7.322;2023-05-23T19:17:11;1.15;;;0.98;;
13240;SDS011;6687;47.790;7.322;2023-05-23T19:19:39;1.02;;;0.93;;
13240;SDS011;6687;47.790;7.322;2023-05-23T19:22:05;1.60;;;1.20;;
13240;SDS011;6687;47.790;7.322;2023-05-23T19:24:32;1.13;;;0.98;;
13240;SDS011;6687;47.790;7.322;2023-05-23T19:27:00;1.67;;;1.10;;
13240;SDS011;6687;47.790;7.322;2023-05-23T19:29:27;1.27;;;1.10;;
13240;SDS011;6687;47.790;7.322;2023-05-23T19:31:54;1.23;;;1.15;;
13240;SDS011;6687;47.790;7.322;2023-05-23T19:34:20;0.70;;;0.70;;
13240;SDS011;6687;47.790;7.322;2023-05-23T19:36:47;1.85;;;1.00;;
13240;SDS011;6687;47.790;7.322;2023-05-23T19:39:14;1.45;;;1.02;;
13240;SDS011;6687;47.790;7.322;2023-05-23T19:41:40;1.30;;;1.20;;
13240;SDS011;6687;47.790;7.322;2023-05-23T19:44:09;1.50;;;1.20;;
13240;SDS011;6687;47.790;7.322;2023-05-23T19:46:35;1.55;;;1.15;;
13240;SDS011;6687;47.790;7.322;2023-05-23T19:49:02;1.42;;;1.17;;
13240;SDS011;6687;47.790;7.322;2023-05-23T19:51:29;1.30;;;1.10;;
13240;SDS011;6687;47.790;7.322;2023-05-23T19:53:56;1.40;;;1.10;;
13240;SDS011;6687;47.790;7.322;2023-05-23T19:56:22;1.15;;;1.05;;
13240;SDS011;6687;47.790;7.322;2023-05-23T19:58:49;0.95;;;0.88;;
13240;SDS011;6687;47.790;7.322;2023-05-23T20:01:18;1.27;;;1.10;;
13240;SDS011;6687;47.790;7.322;2023-05-23T20:03:45;1.48;;;1.10;;
13240;SDS011;6687;47.790;7.322;2023-05-23T20:06:12;2.40;;;1.20;;